createdAt,value
2022-10-04T00:00:27.627Z,75.68
2022-10-04T00:03:02.622Z,75.99
2022-10-04T00:05:31.101Z,76.20
2022-10-04T00:08:04.869Z,76.21
2022-10-04T00:10:34.433Z,76.01
2022-10-04T00:13:06.667Z,75.58
2022-10-04T00:15:38.915Z,74.88
2022-10-04T00:18:11.934Z,75.32
2022-10-04T00:20:51.073Z,75.33
2022-10-04T00:23:23.957Z,74.78
2022-10-04T00:26:15.419Z,75.03
2022-10-04T00:28:46.395Z,75.52
2022-10-04T00:31:14.970Z,75.12
2022-10-04T00:33:42.315Z,75.83
2022-10-04T00:36:24.367Z,75.25
2022-10-04T00:39:09.754Z,75.27
2022-10-04T00:41:57.137Z,75.38
2022-10-04T00:44:47.472Z,76.68
2022-10-04T00:47:46.765Z,74.81
2022-10-04T00:50:25.885Z,74.72
2022-10-04T00:52:57.706Z,76.06
2022-10-04T00:55:39.971Z,76.07
2022-10-04T00:58:18.119Z,75.49
2022-10-04T01:00:48.366Z,76.07
2022-10-04T01:03:21.617Z,76.44
2022-10-04T01:05:55.917Z,75.82
2022-10-04T01:08:33.226Z,75.09
2022-10-04T01:11:26.439Z,75.71
2022-10-04T01:13:59.185Z,75.93
2022-10-04T01:16:28.993Z,76.49
2022-10-04T01:19:16.365Z,76.42
2022-10-04T01:21:43.529Z,76.57
2022-10-04T01:24:16.828Z,76.07
2022-10-04T01:26:45.809Z,76.75
2022-10-04T01:29:31.534Z,76.49
2022-10-04T01:32:01.039Z,76.29
2022-10-04T01:34:30.372Z,76.42
2022-10-04T01:37:00.244Z,76.82
2022-10-04T01:39:29.001Z,77.47
2022-10-04T01:41:56.781Z,77.81
2022-10-04T01:44:31.803Z,77.03
2022-10-04T01:47:03.800Z,77.97
2022-10-04T01:49:35.928Z,77.28
2022-10-04T01:52:08.945Z,77.20
2022-10-04T01:54:49.018Z,77.96
2022-10-04T01:57:23.252Z,77.76
2022-10-04T01:59:57.824Z,78.13
2022-10-04T02:02:29.354Z,78.29
2022-10-04T02:04:58.375Z,78.15
2022-10-04T02:07:29.290Z,78.74
2022-10-04T02:10:02.404Z,78.88
2022-10-04T02:12:31.780Z,77.94
2022-10-04T02:15:02.456Z,79.02
2022-10-04T02:17:33.871Z,78.84
2022-10-04T02:20:03.114Z,79.60
2022-10-04T02:22:31.376Z,79.08
2022-10-04T02:24:58.820Z,78.86
2022-10-04T02:27:31.340Z,80.16
2022-10-04T02:30:08.156Z,79.08
2022-10-04T02:32:54.713Z,79.84
2022-10-04T02:35:22.237Z,79.74
2022-10-04T02:37:58.491Z,79.61
2022-10-04T02:40:32.244Z,79.80
2022-10-04T02:43:07.083Z,80.15
2022-10-04T02:46:07.563Z,80.99
2022-10-04T02:48:52.073Z,79.52
2022-10-04T02:51:33.651Z,80.13
2022-10-04T02:54:30.040Z,80.82
2022-10-04T02:56:58.415Z,80.79
2022-10-04T02:59:25.721Z,81.00
2022-10-04T03:01:56.130Z,81.86
2022-10-04T03:04:27.031Z,81.34
2022-10-04T03:06:55.914Z,81.75
2022-10-04T03:09:29.529Z,81.69
2022-10-04T03:11:57.380Z,81.03
2022-10-04T03:14:28.093Z,81.35
2022-10-04T03:16:57.669Z,81.65
2022-10-04T03:19:30.322Z,82.26
2022-10-04T03:22:18.601Z,81.40
2022-10-04T03:24:48.667Z,81.34
2022-10-04T03:27:36.368Z,81.24
2022-10-04T03:30:03.695Z,81.96
2022-10-04T03:32:32.445Z,81.78
2022-10-04T03:35:03.115Z,82.26
2022-10-04T03:37:35.250Z,82.31
2022-10-04T03:40:03.418Z,81.81
2022-10-04T03:42:34.700Z,82.17
2022-10-04T03:45:07.323Z,82.13
2022-10-04T03:47:38.208Z,82.27
2022-10-04T03:50:16.063Z,81.78
2022-10-04T03:52:50.865Z,82.04
2022-10-04T03:55:18.869Z,81.55
2022-10-04T03:57:46.159Z,81.26
2022-10-04T04:00:18.929Z,80.52
2022-10-04T04:02:53.871Z,81.31
2022-10-04T04:05:51.485Z,81.38
2022-10-04T04:08:46.884Z,82.00
2022-10-04T04:11:24.725Z,82.16
2022-10-04T04:13:54.275Z,81.92
2022-10-04T04:16:26.327Z,82.07
2022-10-04T04:18:56.677Z,82.26
2022-10-04T04:21:26.730Z,82.52
2022-10-04T04:24:01.650Z,81.82
2022-10-04T04:26:31.583Z,82.68
2022-10-04T04:29:06.801Z,82.24
2022-10-04T04:31:42.390Z,81.69
2022-10-04T04:34:29.947Z,81.66
2022-10-04T04:37:02.633Z,81.36
2022-10-04T04:39:34.482Z,81.55
2022-10-04T04:42:15.129Z,80.87
2022-10-04T04:44:53.400Z,81.84
2022-10-04T04:47:34.105Z,80.79
2022-10-04T04:50:08.696Z,80.43
2022-10-04T04:52:37.191Z,80.64
2022-10-04T04:55:06.941Z,80.15
2022-10-04T04:57:34.299Z,80.32
2022-10-04T05:00:02.552Z,80.18
2022-10-04T05:02:35.302Z,79.85
2022-10-04T05:05:26.346Z,78.63
2022-10-04T05:08:15.173Z,78.06
2022-10-04T05:11:09.449Z,77.85
2022-10-04T05:13:52.767Z,78.12
2022-10-04T05:16:22.440Z,77.95
2022-10-04T05:18:59.772Z,78.02
2022-10-04T05:21:35.735Z,78.33
2022-10-04T05:24:13.586Z,78.36
2022-10-04T05:26:42.969Z,78.12
2022-10-04T05:29:19.600Z,77.04
2022-10-04T05:31:56.366Z,75.67
2022-10-04T05:34:29.333Z,75.43
2022-10-04T05:37:06.548Z,75.22
2022-10-04T05:39:58.093Z,74.18
2022-10-04T05:42:38.252Z,73.72
2022-10-04T05:45:17.479Z,74.15
2022-10-04T05:47:47.262Z,74.98
2022-10-04T05:50:19.189Z,75.69
2022-10-04T05:52:49.123Z,75.34
2022-10-04T05:55:28.426Z,73.93
2022-10-04T05:58:04.272Z,75.22
2022-10-04T06:01:08.855Z,74.08
2022-10-04T06:03:52.368Z,77.79
2022-10-04T06:06:31.454Z,74.71
2022-10-04T06:09:36.903Z,73.90
2022-10-04T06:12:09.866Z,74.09
2022-10-04T06:14:42.795Z,74.49
2022-10-04T06:17:29.455Z,74.05
2022-10-04T06:20:23.867Z,73.96
2022-10-04T06:22:59.357Z,74.29
2022-10-04T06:25:40.370Z,73.95
2022-10-04T06:28:16.218Z,73.69
2022-10-04T06:31:27.337Z,73.63
2022-10-04T06:34:26.195Z,72.07
2022-10-04T06:37:10.958Z,72.38
2022-10-04T06:39:59.716Z,72.06
2022-10-04T06:42:53.364Z,73.40
2022-10-04T06:45:29.948Z,72.85
2022-10-04T06:48:22.176Z,73.55
2022-10-04T06:51:01.977Z,73.23
2022-10-04T06:54:06.125Z,72.41
2022-10-04T06:56:52.131Z,72.74
2022-10-04T06:59:35.092Z,73.37
2022-10-04T07:02:13.231Z,73.00
2022-10-04T07:05:07.718Z,72.15
2022-10-04T07:07:38.816Z,72.46
2022-10-04T07:10:08.605Z,72.47
2022-10-04T07:12:42.875Z,72.25
2022-10-04T07:15:19.869Z,71.21
2022-10-04T07:17:49.278Z,70.08
2022-10-04T07:20:23.491Z,70.07
2022-10-04T07:23:05.454Z,70.50
2022-10-04T07:25:43.285Z,71.48
2022-10-04T07:28:28.973Z,71.31
2022-10-04T07:31:11.222Z,71.44
2022-10-04T07:33:50.610Z,71.27
2022-10-04T07:36:22.943Z,71.09
2022-10-04T07:39:00.413Z,71.58
2022-10-04T07:41:33.974Z,71.01
2022-10-04T07:44:16.186Z,70.06
2022-10-04T07:46:43.044Z,68.70
2022-10-04T07:49:19.368Z,67.29
2022-10-04T07:52:04.432Z,66.32
2022-10-04T07:54:40.532Z,65.53
2022-10-04T07:57:39.752Z,64.97
2022-10-04T08:00:19.062Z,64.04
2022-10-04T08:02:46.107Z,64.92
2022-10-04T08:05:56.992Z,62.92
2022-10-04T08:08:32.541Z,64.27
2022-10-04T08:11:36.713Z,62.18
2022-10-04T08:14:37.765Z,58.86
2022-10-04T08:17:21.354Z,57.47
2022-10-04T08:20:01.657Z,58.06
2022-10-04T08:22:33.217Z,59.41
2022-10-04T08:25:21.171Z,59.22
2022-10-04T08:28:11.885Z,60.99
2022-10-04T08:31:02.416Z,61.18
2022-10-04T08:34:05.002Z,62.03
2022-10-04T08:36:49.754Z,62.12
2022-10-04T08:39:32.245Z,63.37
2022-10-04T08:42:50.604Z,62.74
2022-10-04T08:45:45.207Z,60.35
2022-10-04T08:48:30.509Z,58.78
2022-10-04T08:51:34.422Z,58.95
2022-10-04T08:54:16.939Z,60.08
2022-10-04T08:57:04.839Z,60.22
2022-10-04T08:59:52.849Z,60.33
2022-10-04T09:02:37.970Z,60.78
2022-10-04T09:05:34.349Z,59.33
2022-10-04T09:08:07.511Z,55.56
2022-10-04T09:10:44.589Z,54.64
2022-10-04T09:13:31.435Z,50.43
2022-10-04T09:16:27.378Z,51.33
2022-10-04T09:19:17.034Z,52.14
2022-10-04T09:21:46.915Z,50.53
2022-10-04T09:24:19.506Z,48.24
2022-10-04T09:26:51.609Z,45.60
2022-10-04T09:29:34.838Z,46.88
2022-10-04T09:32:39.979Z,47.23
2022-10-04T09:35:49.160Z,48.16
2022-10-04T09:38:47.486Z,51.00
2022-10-04T09:41:42.235Z,51.25
2022-10-04T09:44:24.392Z,52.48
2022-10-04T09:47:24.406Z,53.29
2022-10-04T09:50:00.317Z,55.02
2022-10-04T09:52:30.273Z,55.06
2022-10-04T09:55:12.367Z,56.54
2022-10-04T09:57:57.690Z,56.81
2022-10-04T10:00:29.578Z,56.74
2022-10-04T10:03:24.389Z,57.05
2022-10-04T10:05:54.091Z,59.38
2022-10-04T10:08:29.984Z,62.24
2022-10-04T10:11:40.435Z,63.39
2022-10-04T10:14:53.913Z,63.01
2022-10-04T10:17:40.356Z,65.30
2022-10-04T10:20:32.240Z,63.29
2022-10-04T10:22:59.149Z,65.70
2022-10-04T10:26:01.647Z,69.67
2022-10-04T10:28:29.252Z,80.18
2022-10-04T10:31:05.981Z,90.57
2022-10-04T10:33:59.471Z,93.57
2022-10-04T10:36:34.197Z,96.85
2022-10-04T10:39:25.590Z,97.90
2022-10-04T10:42:27.786Z,99.85
2022-10-04T10:45:26.679Z,97.25
2022-10-04T10:48:22.768Z,97.03
2022-10-04T10:51:20.599Z,96.73
2022-10-04T10:54:25.377Z,95.48
2022-10-04T10:57:20.160Z,94.02
2022-10-04T11:00:17.827Z,92.46
2022-10-04T11:03:13.207Z,94.52
2022-10-04T11:06:00.272Z,95.53
2022-10-04T11:08:37.261Z,93.95
2022-10-04T11:11:11.469Z,93.87
2022-10-04T11:14:27.184Z,95.08
2022-10-04T11:17:27.657Z,95.15
2022-10-04T11:20:19.003Z,92.23
2022-10-04T11:23:23.225Z,93.01
2022-10-04T11:26:28.270Z,92.92
2022-10-04T11:29:10.973Z,92.48
2022-10-04T11:31:59.643Z,91.59
2022-10-04T11:35:16.397Z,91.20
2022-10-04T11:37:54.145Z,91.29
2022-10-04T11:40:47.422Z,91.79
2022-10-04T11:43:38.532Z,90.70
2022-10-04T11:46:17.698Z,90.73
2022-10-04T11:48:57.394Z,90.37
2022-10-04T11:51:26.201Z,90.36
2022-10-04T11:54:13.296Z,89.52
2022-10-04T11:56:50.430Z,90.44
2022-10-04T11:59:37.603Z,89.32
2022-10-04T12:02:22.820Z,88.54
2022-10-04T12:05:07.778Z,88.72
2022-10-04T12:07:53.168Z,88.30
2022-10-04T12:10:34.572Z,89.24
2022-10-04T12:13:35.822Z,87.49
2022-10-04T12:16:27.769Z,87.26
2022-10-04T12:19:15.933Z,86.34
2022-10-04T12:22:04.282Z,84.60
2022-10-04T12:24:47.880Z,83.70
2022-10-04T12:27:37.752Z,80.72
2022-10-04T12:30:21.314Z,79.77
2022-10-04T12:33:04.956Z,79.49
2022-10-04T12:35:54.703Z,78.16
2022-10-04T12:38:21.971Z,79.74
2022-10-04T12:41:26.465Z,78.83
2022-10-04T12:44:17.916Z,78.99
2022-10-04T12:47:06.212Z,78.86
2022-10-04T12:49:48.440Z,78.08
2022-10-04T12:52:21.301Z,77.62
2022-10-04T12:55:10.025Z,78.26
2022-10-04T12:58:05.468Z,79.02
2022-10-04T13:00:43.949Z,79.09
2022-10-04T13:03:22.647Z,79.09
2022-10-04T13:06:10.515Z,78.80
2022-10-04T13:08:49.513Z,77.57
2022-10-04T13:11:31.476Z,77.83
2022-10-04T13:14:23.991Z,77.55
2022-10-04T13:19:53.348Z,77.33
2022-10-04T13:22:55.237Z,77.49
2022-10-04T13:25:37.032Z,76.23
2022-10-04T13:28:12.960Z,75.99
2022-10-04T13:31:10.779Z,76.51
2022-10-04T13:33:50.500Z,76.77
2022-10-04T13:36:30.882Z,76.25
2022-10-04T13:39:28.849Z,76.83
2022-10-04T13:42:12.587Z,76.96
2022-10-04T13:44:56.863Z,76.10
2022-10-04T13:48:20.883Z,77.14
2022-10-04T13:51:00.653Z,76.55
2022-10-04T13:54:04.859Z,76.03
2022-10-04T13:56:40.790Z,75.26
2022-10-04T13:59:33.673Z,75.72
2022-10-04T14:02:24.138Z,74.83
2022-10-04T14:05:32.470Z,75.82
2022-10-04T14:08:11.043Z,75.97
2022-10-04T14:11:07.839Z,75.90
2022-10-04T14:14:18.115Z,75.71
2022-10-04T14:16:58.435Z,73.91
2022-10-04T14:19:47.164Z,75.07
2022-10-04T14:22:24.988Z,73.58
2022-10-04T14:25:27.299Z,74.75
2022-10-04T14:28:19.019Z,73.24
2022-10-04T14:31:20.297Z,73.99
2022-10-04T14:34:14.616Z,74.83
2022-10-04T14:37:16.584Z,74.81
2022-10-04T14:40:04.665Z,74.61
2022-10-04T14:42:54.932Z,74.75
2022-10-04T14:45:40.566Z,74.02
2022-10-04T14:48:44.909Z,75.34
2022-10-04T14:51:19.559Z,73.43
2022-10-04T14:54:09.786Z,73.52
2022-10-04T14:56:43.891Z,74.26
2022-10-04T14:59:14.003Z,73.60
2022-10-04T15:02:05.032Z,73.74
2022-10-04T15:05:16.504Z,74.25
2022-10-04T15:07:51.547Z,74.04
2022-10-04T15:10:38.208Z,74.05
2022-10-04T15:13:20.308Z,74.36
2022-10-04T15:15:50.698Z,74.49
2022-10-04T15:19:00.504Z,74.70
2022-10-04T15:21:45.570Z,74.48
2022-10-04T15:24:18.554Z,75.21
2022-10-04T15:27:09.414Z,75.12
2022-10-04T15:30:01.178Z,76.20
2022-10-04T15:32:46.731Z,75.56
2022-10-04T15:35:33.922Z,75.74
2022-10-04T15:38:04.605Z,76.53
2022-10-04T15:41:21.044Z,76.64
2022-10-04T15:44:13.456Z,77.01
2022-10-04T15:46:46.376Z,76.81
2022-10-04T15:49:41.401Z,77.49
2022-10-04T15:52:14.896Z,76.89
2022-10-04T15:54:52.179Z,77.43
2022-10-04T15:58:05.216Z,77.47
2022-10-04T16:01:09.800Z,77.45
2022-10-04T16:04:15.246Z,78.25
2022-10-04T16:07:00.969Z,78.29
2022-10-04T16:09:59.288Z,79.89
2022-10-04T16:12:39.577Z,79.41
2022-10-04T16:15:16.154Z,78.80
2022-10-04T16:17:48.815Z,79.51
2022-10-04T16:20:55.424Z,79.21
2022-10-04T16:23:32.038Z,79.58
2022-10-04T16:26:03.472Z,78.98
2022-10-04T16:28:30.458Z,78.95
2022-10-04T16:31:15.469Z,79.65
2022-10-04T16:34:08.125Z,79.44
2022-10-04T16:36:52.389Z,79.14
2022-10-04T16:39:52.971Z,79.71
2022-10-04T16:42:28.701Z,79.79
2022-10-04T16:45:19.792Z,79.63
2022-10-04T16:47:58.013Z,80.14
2022-10-04T16:50:43.633Z,80.52
2022-10-04T16:53:51.784Z,80.96
2022-10-04T16:56:23.127Z,81.25
2022-10-04T16:58:55.322Z,80.44
2022-10-04T17:01:43.524Z,80.10
2022-10-04T17:04:37.145Z,78.50
2022-10-04T17:07:29.960Z,78.90
2022-10-04T17:10:16.250Z,77.52
2022-10-04T17:13:05.887Z,78.16
2022-10-04T17:16:05.748Z,76.71
2022-10-04T17:18:38.695Z,77.15
2022-10-04T17:21:38.998Z,75.74
2022-10-04T17:24:14.680Z,75.92
2022-10-04T17:26:42.267Z,76.04
2022-10-04T17:29:46.959Z,75.12
2022-10-04T17:32:53.243Z,75.40
2022-10-04T17:35:47.094Z,75.36
2022-10-04T17:38:54.201Z,76.55
2022-10-04T17:41:51.366Z,75.13
2022-10-04T17:44:37.084Z,75.79
2022-10-04T17:47:14.568Z,75.99
2022-10-04T17:50:15.744Z,75.77
2022-10-04T17:53:08.667Z,76.76
2022-10-04T17:55:55.988Z,77.64
2022-10-04T17:58:25.422Z,77.22
2022-10-04T18:01:06.773Z,76.67
2022-10-04T18:03:59.257Z,76.88
2022-10-04T18:06:48.592Z,76.77
2022-10-04T18:09:23.540Z,77.36
2022-10-04T18:11:57.054Z,77.69
2022-10-04T18:14:30.005Z,78.05
2022-10-04T18:17:05.748Z,79.47
2022-10-04T18:19:50.800Z,78.65
2022-10-04T18:22:20.397Z,79.18
2022-10-04T18:24:49.681Z,78.88
2022-10-04T18:27:18.804Z,79.76
2022-10-04T18:30:17.002Z,79.35
2022-10-04T18:32:48.832Z,79.99
2022-10-04T18:35:34.279Z,79.69
2022-10-04T18:38:22.949Z,79.16
2022-10-04T18:41:00.443Z,78.89
2022-10-04T18:43:53.706Z,78.81
2022-10-04T18:46:22.840Z,79.29
2022-10-04T18:49:02.026Z,79.24
2022-10-04T18:51:39.303Z,78.99
2022-10-04T18:54:37.078Z,78.78
2022-10-04T18:57:24.271Z,79.23
2022-10-04T19:00:09.702Z,79.59
2022-10-04T19:03:01.412Z,79.60
2022-10-04T19:05:39.187Z,79.70
2022-10-04T19:08:33.701Z,79.54
2022-10-04T19:11:09.211Z,79.94
2022-10-04T19:13:45.381Z,79.68
2022-10-04T19:16:15.961Z,79.74
2022-10-04T19:19:14.067Z,79.78
2022-10-04T19:22:03.248Z,81.26
2022-10-04T19:24:58.249Z,81.46
2022-10-04T19:27:36.390Z,81.49
2022-10-04T19:30:23.065Z,81.59
2022-10-04T19:33:07.212Z,81.84
2022-10-04T19:35:58.802Z,81.85
2022-10-04T19:38:57.735Z,82.03
2022-10-04T19:41:33.842Z,82.44
2022-10-04T19:44:37.352Z,81.81
2022-10-04T19:47:25.210Z,81.33
2022-10-04T19:50:18.550Z,81.45
2022-10-04T19:53:02.669Z,81.03
2022-10-04T19:55:51.459Z,80.43
2022-10-04T19:58:29.983Z,80.94
2022-10-04T20:00:57.524Z,80.17
2022-10-04T20:03:25.035Z,80.26
2022-10-04T20:05:54.537Z,80.32
2022-10-04T20:08:49.558Z,80.08
2022-10-04T20:11:24.258Z,80.50
2022-10-04T20:14:03.540Z,80.72
2022-10-04T20:16:49.667Z,81.08
2022-10-04T20:19:29.498Z,80.92
2022-10-04T20:22:20.221Z,80.62
2022-10-04T20:24:47.071Z,81.25
2022-10-04T20:27:29.668Z,81.24
2022-10-04T20:30:02.145Z,81.20
2022-10-04T20:32:30.174Z,81.59
2022-10-04T20:34:58.116Z,81.58
2022-10-04T20:38:13.607Z,81.92
2022-10-04T20:40:41.335Z,82.30
2022-10-04T20:43:14.084Z,81.67
2022-10-04T20:45:55.441Z,81.72
2022-10-04T20:48:23.455Z,82.42
2022-10-04T20:50:51.788Z,82.65
2022-10-04T20:53:30.849Z,82.70
2022-10-04T20:56:20.926Z,82.36
2022-10-04T20:58:54.040Z,82.71
2022-10-04T21:01:38.420Z,81.72
2022-10-04T21:04:41.328Z,81.40
2022-10-04T21:07:13.719Z,81.35
2022-10-04T21:09:42.065Z,81.37
2022-10-04T21:12:35.180Z,81.96
2022-10-04T21:15:19.340Z,81.24
2022-10-04T21:18:10.973Z,81.45
2022-10-04T21:20:51.718Z,81.33
2022-10-04T21:23:33.885Z,81.59
2022-10-04T21:26:21.092Z,81.39
2022-10-04T21:28:58.600Z,81.83
2022-10-04T21:31:25.988Z,82.02
2022-10-04T21:33:53.000Z,81.32
2022-10-04T21:36:19.984Z,81.56
2022-10-04T21:38:46.978Z,81.15
2022-10-04T21:41:13.844Z,81.18
2022-10-04T21:43:40.818Z,81.81
2022-10-04T21:46:07.927Z,81.85
2022-10-04T21:48:34.938Z,81.37
2022-10-04T21:51:01.867Z,82.02
2022-10-04T21:53:28.808Z,81.92
2022-10-04T21:55:55.708Z,81.83
2022-10-04T21:58:22.631Z,81.63
2022-10-04T22:00:49.812Z,81.92
2022-10-04T22:03:16.798Z,82.20
2022-10-04T22:05:45.310Z,81.99
2022-10-04T22:08:12.627Z,81.82
2022-10-04T22:10:40.253Z,81.85
2022-10-04T22:13:07.280Z,81.93
2022-10-04T22:15:35.318Z,82.27
2022-10-04T22:18:02.215Z,82.27
2022-10-04T22:20:29.373Z,82.25
2022-10-04T22:22:57.709Z,82.98
2022-10-04T22:25:27.309Z,82.37
2022-10-04T22:27:55.428Z,82.99
2022-10-04T22:30:28.789Z,82.44
2022-10-04T22:32:58.366Z,82.83
2022-10-04T22:35:25.454Z,82.40
2022-10-04T22:37:52.699Z,83.24
2022-10-04T22:40:24.656Z,82.80
2022-10-04T22:42:57.094Z,83.64
2022-10-04T22:45:27.361Z,84.25
2022-10-04T22:47:57.653Z,83.76
2022-10-04T22:50:36.522Z,83.14
2022-10-04T22:53:13.824Z,84.03
2022-10-04T22:55:41.537Z,83.56
2022-10-04T22:58:13.439Z,84.24
2022-10-04T23:00:41.249Z,83.59
2022-10-04T23:03:31.575Z,83.48
2022-10-04T23:06:02.869Z,83.67
2022-10-04T23:08:30.921Z,84.04
2022-10-04T23:11:00.600Z,83.92
2022-10-04T23:13:27.923Z,83.73
2022-10-04T23:16:00.477Z,83.40
2022-10-04T23:18:29.923Z,83.77
2022-10-04T23:21:01.154Z,83.95
2022-10-04T23:23:30.989Z,83.64
2022-10-04T23:25:58.096Z,83.76
2022-10-04T23:28:25.230Z,83.58
2022-10-04T23:31:02.296Z,84.54
2022-10-04T23:33:30.181Z,84.38
2022-10-04T23:35:57.724Z,84.01
2022-10-04T23:38:24.961Z,83.79
2022-10-04T23:40:52.060Z,84.11
2022-10-04T23:43:25.132Z,84.50
2022-10-04T23:45:54.094Z,84.05
2022-10-04T23:48:32.355Z,84.58
2022-10-04T23:51:00.125Z,84.23
2022-10-04T23:53:32.582Z,85.02
2022-10-04T23:56:05.221Z,84.74
2022-10-04T23:58:35.993Z,84.03
